<?xml version="1.0" encoding="UTF-8"?>
<gpx xmlns="http://www.topografix.com/GPX/1/1" xmlns:ns2="http://www.garmin.com/xmlschemas/GpxExtensions/v3" xmlns:ns3="http://www.garmin.com/xmlschemas/TrackPointExtension/v1" xmlns:xsi="http://www.w3.org/2001/XMLSchema-instance" xsi:schemaLocation="http://www.topografix.com/GPX/1/1 http://www.topografix.com/GPX/11.xsd" version="1.1" creator="Garmin Connect">
  <metadata>
    <name>VR - Climb Brozzo / Cocca di Lodrino</name>
    <link href="connect.garmin.com">
      <text>Garmin Connect</text>
    </link>
    <time>2018-02-26T14:39:24Z</time>
  </metadata>
  <trk>
    <trkseg>
      <trkpt lat="45.721917478367686" lon="10.230332091450691">
        <ele>403.0</ele>
        <time>2018-02-26T14:39:24Z</time>
      </trkpt>
      <trkpt lat="45.721964836120605" lon="10.230438709259033">
        <ele>403.37714309784116</ele>
        <time>2018-02-26T14:39:24.141000Z</time>
      </trkpt>
      <trkpt lat="45.721964836120605" lon="10.230588912963867">
        <ele>403.82542414555274</ele>
        <time>2018-02-26T14:39:24.309000Z</time>
      </trkpt>
      <trkpt lat="45.72177171707153" lon="10.231060981750488">
        <ele>405.4583699539576</ele>
        <time>2018-02-26T14:39:24.921000Z</time>
      </trkpt>
      <trkpt lat="45.72132110595703" lon="10.231382846832275">
        <ele>403.56785211309654</ele>
        <time>2018-02-26T14:39:25.728000Z</time>
      </trkpt>
      <trkpt lat="45.72089203633368" lon="10.231597423553467">
        <ele>403.6666666666667</ele>
        <time>2018-02-26T14:39:26.457000Z</time>
      </trkpt>
      <trkpt lat="45.72057620622218" lon="10.231745531782508">
        <ele>403.2332329591197</ele>
        <time>2018-02-26T14:39:26.990000Z</time>
      </trkpt>
      <trkpt lat="45.72057629004121" lon="10.231745447963476">
        <ele>403.2332021676071</ele>
        <time>2018-02-26T14:39:26.990000Z</time>
      </trkpt>
      <trkpt lat="45.71984061039984" lon="10.232090950012207">
        <ele>403.0</ele>
        <time>2018-02-26T14:39:28.231000Z</time>
      </trkpt>
      <trkpt lat="45.718982219696045" lon="10.232434272766113">
        <ele>404.61687168586695</ele>
        <time>2018-02-26T14:39:29.660000Z</time>
      </trkpt>
      <trkpt lat="45.71868181228638" lon="10.232648849487305">
        <ele>406.6847705191354</ele>
        <time>2018-02-26T14:39:30.198000Z</time>
      </trkpt>
      <trkpt lat="45.718016624450684" lon="10.233635902404785">
        <ele>411.40798603777927</ele>
        <time>2018-02-26T14:39:31.734000Z</time>
      </trkpt>
      <trkpt lat="45.7171368598938" lon="10.235824584960938">
        <ele>418.0</ele>
        <time>2018-02-26T14:39:34.561000Z</time>
      </trkpt>
      <trkpt lat="45.71694374084473" lon="10.236597061157227">
        <ele>419.19284571219913</ele>
        <time>2018-02-26T14:39:35.479000Z</time>
      </trkpt>
      <trkpt lat="45.7168794516474" lon="10.23726224899292">
        <ele>428.8357842462877</ele>
        <time>2018-02-26T14:39:36.231000Z</time>
      </trkpt>
      <trkpt lat="45.71690082550049" lon="10.237905979156494">
        <ele>431.660004859925</ele>
        <time>2018-02-26T14:39:36.952000Z</time>
      </trkpt>
      <trkpt lat="45.71711540222168" lon="10.239171981811523">
        <ele>433.0</ele>
        <time>2018-02-26T14:39:38.410000Z</time>
      </trkpt>
      <trkpt lat="45.71707248687744" lon="10.24000883102417">
        <ele>438.72519288895387</ele>
        <time>2018-02-26T14:39:39.349000Z</time>
      </trkpt>
      <trkpt lat="45.717008113861084" lon="10.240330696105957">
        <ele>439.2805580398585</ele>
        <time>2018-02-26T14:39:39.724000Z</time>
      </trkpt>
      <trkpt lat="45.71677207946777" lon="10.24075984954834">
        <ele>440.186751335207</ele>
        <time>2018-02-26T14:39:40.335000Z</time>
      </trkpt>
      <trkpt lat="45.71617126464844" lon="10.24125337600708">
        <ele>432.01063223441776</ele>
        <time>2018-02-26T14:39:41.445000Z</time>
      </trkpt>
      <trkpt lat="45.71606406010687" lon="10.241553783416748">
        <ele>433.0007536632968</ele>
        <time>2018-02-26T14:39:41.823000Z</time>
      </trkpt>
      <trkpt lat="45.71606397628784" lon="10.241553783416748">
        <ele>433.00110598058467</ele>
        <time>2018-02-26T14:39:41.823000Z</time>
      </trkpt>
      <trkpt lat="45.71606397628784" lon="10.24224042892456">
        <ele>440.3496145769839</ele>
        <time>2018-02-26T14:39:42.592000Z</time>
      </trkpt>
      <trkpt lat="45.715978145599365" lon="10.242927074432373">
        <ele>451.554766725894</ele>
        <time>2018-02-26T14:39:43.373000Z</time>
      </trkpt>
      <trkpt lat="45.71533441543579" lon="10.244364738464355">
        <ele>463.0</ele>
        <time>2018-02-26T14:39:45.285000Z</time>
      </trkpt>
      <trkpt lat="45.71514129638672" lon="10.245180130004883">
        <ele>460.5652092604791</ele>
        <time>2018-02-26T14:39:46.249000Z</time>
      </trkpt>
      <trkpt lat="45.714733600616455" lon="10.24548053741455">
        <ele>447.0079876974092</ele>
        <time>2018-02-26T14:39:46.984000Z</time>
      </trkpt>
      <trkpt lat="45.71458339691162" lon="10.245695114135742">
        <ele>446.9570943991807</ele>
        <time>2018-02-26T14:39:47.324000Z</time>
      </trkpt>
      <trkpt lat="45.71413278579712" lon="10.247304439544678">
        <ele>449.0</ele>
        <time>2018-02-26T14:39:49.265000Z</time>
      </trkpt>
      <trkpt lat="45.713489055633545" lon="10.248785018920898">
        <ele>473.267892417962</ele>
        <time>2018-02-26T14:39:51.217000Z</time>
      </trkpt>
      <trkpt lat="45.71327447891235" lon="10.249557495117188">
        <ele>463.8846065056911</ele>
        <time>2018-02-26T14:39:52.148000Z</time>
      </trkpt>
      <trkpt lat="45.71312435902655" lon="10.249836444854736">
        <ele>462.8450893914312</ele>
        <time>2018-02-26T14:39:52.542000Z</time>
      </trkpt>
      <trkpt lat="45.71278095245361" lon="10.251359939575195">
        <ele>483.222397682216</ele>
        <time>2018-02-26T14:39:54.334000Z</time>
      </trkpt>
      <trkpt lat="45.71273812092841" lon="10.25151014328003">
        <ele>484.40922835432906</ele>
        <time>2018-02-26T14:39:54.516000Z</time>
      </trkpt>
      <trkpt lat="45.71273812092841" lon="10.251531600952148">
        <ele>484.4852321952206</ele>
        <time>2018-02-26T14:39:54.540000Z</time>
      </trkpt>
      <trkpt lat="45.7126522064209" lon="10.252861976623535">
        <ele>488.8842499858118</ele>
        <time>2018-02-26T14:39:56.036000Z</time>
      </trkpt>
      <trkpt lat="45.71272546425462" lon="10.253832936286926">
        <ele>492.89897891722165</ele>
        <time>2018-02-26T14:39:57.129000Z</time>
      </trkpt>
      <trkpt lat="45.71272546425462" lon="10.253832852467895">
        <ele>492.89884584147484</ele>
        <time>2018-02-26T14:39:57.129000Z</time>
      </trkpt>
      <trkpt lat="45.712738037109375" lon="10.25399923324585">
        <ele>492.6331481499951</ele>
        <time>2018-02-26T14:39:57.316000Z</time>
      </trkpt>
      <trkpt lat="45.71293115615845" lon="10.256059169769287">
        <ele>486.0</ele>
        <time>2018-02-26T14:39:59.643000Z</time>
      </trkpt>
      <trkpt lat="45.71331739425659" lon="10.2567458152771">
        <ele>482.06844076548214</ele>
        <time>2018-02-26T14:40:00.630000Z</time>
      </trkpt>
      <trkpt lat="45.713467597961426" lon="10.25672435760498">
        <ele>492.39322869871074</ele>
        <time>2018-02-26T14:40:00.872000Z</time>
      </trkpt>
      <trkpt lat="45.713510513305664" lon="10.25648832321167">
        <ele>497.8451551487949</ele>
        <time>2018-02-26T14:40:01.145000Z</time>
      </trkpt>
      <trkpt lat="45.71340322494507" lon="10.255951881408691">
        <ele>500.4043108150309</ele>
        <time>2018-02-26T14:40:01.770000Z</time>
      </trkpt>
      <trkpt lat="45.712995529174805" lon="10.254170894622803">
        <ele>504.0</ele>
        <time>2018-02-26T14:40:03.868000Z</time>
      </trkpt>
      <trkpt lat="45.713016986846924" lon="10.253677368164062">
        <ele>497.09042635840683</ele>
        <time>2018-02-26T14:40:04.422000Z</time>
      </trkpt>
      <trkpt lat="45.712995529174805" lon="10.253076553344727">
        <ele>488.9283928757113</ele>
        <time>2018-02-26T14:40:05.095000Z</time>
      </trkpt>
      <trkpt lat="45.71312427520752" lon="10.252904891967773">
        <ele>488.552311584125</ele>
        <time>2018-02-26T14:40:05.377000Z</time>
      </trkpt>
      <trkpt lat="45.713231563568115" lon="10.252926349639893">
        <ele>488.320705583508</ele>
        <time>2018-02-26T14:40:05.551000Z</time>
      </trkpt>
      <trkpt lat="45.71329593658447" lon="10.253055095672607">
        <ele>488.08431289400323</ele>
        <time>2018-02-26T14:40:05.728000Z</time>
      </trkpt>
      <trkpt lat="45.71318864822388" lon="10.254042148590088">
        <ele>497.54332964369587</ele>
        <time>2018-02-26T14:40:06.846000Z</time>
      </trkpt>
      <trkpt lat="45.71359634399414" lon="10.255115032196045">
        <ele>523.6141200696223</ele>
        <time>2018-02-26T14:40:08.213000Z</time>
      </trkpt>
      <trkpt lat="45.71387529373169" lon="10.255415439605713">
        <ele>529.3720895037821</ele>
        <time>2018-02-26T14:40:08.773000Z</time>
      </trkpt>
      <trkpt lat="45.71441173553467" lon="10.255630016326904">
        <ele>536.2728253854415</ele>
        <time>2018-02-26T14:40:09.666000Z</time>
      </trkpt>
      <trkpt lat="45.714476108551025" lon="10.25571584701538">
        <ele>536.8298149803178</ele>
        <time>2018-02-26T14:40:09.807000Z</time>
      </trkpt>
      <trkpt lat="45.714476108551025" lon="10.255844593048096">
        <ele>541.3991114333368</ele>
        <time>2018-02-26T14:40:09.951000Z</time>
      </trkpt>
      <trkpt lat="45.71432590484619" lon="10.256209373474121">
        <ele>543.2717129501499</ele>
        <time>2018-02-26T14:40:10.425000Z</time>
      </trkpt>
      <trkpt lat="45.71432590484619" lon="10.25648832321167">
        <ele>544.5051919136391</ele>
        <time>2018-02-26T14:40:10.737000Z</time>
      </trkpt>
      <trkpt lat="45.71458339691162" lon="10.25672435760498">
        <ele>544.7668904674505</ele>
        <time>2018-02-26T14:40:11.227000Z</time>
      </trkpt>
      <trkpt lat="45.71486234664917" lon="10.257153511047363">
        <ele>546.0100789029744</ele>
        <time>2018-02-26T14:40:11.883000Z</time>
      </trkpt>
      <trkpt lat="45.71514129638672" lon="10.257325172424316">
        <ele>554.2653759046283</ele>
        <time>2018-02-26T14:40:12.370000Z</time>
      </trkpt>
      <trkpt lat="45.7156777381897" lon="10.257925987243652">
        <ele>551.0</ele>
        <time>2018-02-26T14:40:13.462000Z</time>
      </trkpt>
      <trkpt lat="45.71589231491089" lon="10.258269309997559">
        <ele>565.6901759355761</ele>
        <time>2018-02-26T14:40:13.978000Z</time>
      </trkpt>
      <trkpt lat="45.715978145599365" lon="10.25874137878418">
        <ele>564.2048440880876</ele>
        <time>2018-02-26T14:40:14.524000Z</time>
      </trkpt>
      <trkpt lat="45.71591377258301" lon="10.259256362915039">
        <ele>563.925957342327</ele>
        <time>2018-02-26T14:40:15.110000Z</time>
      </trkpt>
      <trkpt lat="45.71578502655029" lon="10.259771347045898">
        <ele>558.0866595740957</ele>
        <time>2018-02-26T14:40:15.722000Z</time>
      </trkpt>
      <trkpt lat="45.71589231491089" lon="10.26050090789795">
        <ele>571.9107162279242</ele>
        <time>2018-02-26T14:40:16.557000Z</time>
      </trkpt>
      <trkpt lat="45.715961465612054" lon="10.260660499334335">
        <ele>572.49069753787</ele>
        <time>2018-02-26T14:40:16.767000Z</time>
      </trkpt>
      <trkpt lat="45.71596129797399" lon="10.260660164058208">
        <ele>572.491970913227</ele>
        <time>2018-02-26T14:40:16.767000Z</time>
      </trkpt>
      <trkpt lat="45.716514587402344" lon="10.261938571929932">
        <ele>574.8030540991589</ele>
        <time>2018-02-26T14:40:18.451000Z</time>
      </trkpt>
      <trkpt lat="45.71664333343506" lon="10.262410640716553">
        <ele>576.141603934695</ele>
        <time>2018-02-26T14:40:19.018000Z</time>
      </trkpt>
      <trkpt lat="45.716750621795654" lon="10.263097286224365">
        <ele>590.0486494643654</ele>
        <time>2018-02-26T14:40:19.806000Z</time>
      </trkpt>
      <trkpt lat="45.71735143661499" lon="10.263826847076416">
        <ele>588.6666666666666</ele>
        <time>2018-02-26T14:40:21.069000Z</time>
      </trkpt>
      <trkpt lat="45.71752309799194" lon="10.26421308517456">
        <ele>595.8922478482438</ele>
        <time>2018-02-26T14:40:21.581000Z</time>
      </trkpt>
      <trkpt lat="45.71765184402466" lon="10.264191627502441">
        <ele>596.2540213600438</ele>
        <time>2018-02-26T14:40:21.789000Z</time>
      </trkpt>
      <trkpt lat="45.7176947593689" lon="10.264019966125488">
        <ele>601.9426802006474</ele>
        <time>2018-02-26T14:40:21.993000Z</time>
      </trkpt>
      <trkpt lat="45.717458724975586" lon="10.263762474060059">
        <ele>591.1041566808165</ele>
        <time>2018-02-26T14:40:22.469000Z</time>
      </trkpt>
      <trkpt lat="45.716986656188965" lon="10.262839794158936">
        <ele>598.0</ele>
        <time>2018-02-26T14:40:23.749000Z</time>
      </trkpt>
      <trkpt lat="45.716986656188965" lon="10.26273250579834">
        <ele>598.0615093129234</ele>
        <time>2018-02-26T14:40:23.869000Z</time>
      </trkpt>
      <trkpt lat="45.71705102920532" lon="10.262646675109863">
        <ele>598.1337265628334</ele>
        <time>2018-02-26T14:40:24.010000Z</time>
      </trkpt>
      <trkpt lat="45.71711540222168" lon="10.262625217437744">
        <ele>598.187997169245</ele>
        <time>2018-02-26T14:40:24.116000Z</time>
      </trkpt>
      <trkpt lat="45.71739435195923" lon="10.263290405273438">
        <ele>598.6328522369769</ele>
        <time>2018-02-26T14:40:24.985000Z</time>
      </trkpt>
      <trkpt lat="45.71760892868042" lon="10.263633728027344">
        <ele>606.32290143131</ele>
        <time>2018-02-26T14:40:25.501000Z</time>
      </trkpt>
      <trkpt lat="45.71782350540161" lon="10.263848304748535">
        <ele>606.8842236119489</ele>
        <time>2018-02-26T14:40:25.921000Z</time>
      </trkpt>
      <trkpt lat="45.718209743499756" lon="10.264642238616943">
        <ele>603.0</ele>
        <time>2018-02-26T14:40:27.004000Z</time>
      </trkpt>
      <trkpt lat="45.71878910064697" lon="10.265178680419922">
        <ele>606.7974427310058</ele>
        <time>2018-02-26T14:40:28.110000Z</time>
      </trkpt>
      <trkpt lat="45.71885355748236" lon="10.265371799468994">
        <ele>606.175888325894</ele>
        <time>2018-02-26T14:40:28.350000Z</time>
      </trkpt>
      <trkpt lat="45.71881064213812" lon="10.265500545501709">
        <ele>605.7616186471</ele>
        <time>2018-02-26T14:40:28.510000Z</time>
      </trkpt>
      <trkpt lat="45.718252658843994" lon="10.265629291534424">
        <ele>591.4110248951049</ele>
        <time>2018-02-26T14:40:29.416000Z</time>
      </trkpt>
      <trkpt lat="45.71795233525336" lon="10.26648759841919">
        <ele>597.7533064967878</ele>
        <time>2018-02-26T14:40:30.491000Z</time>
      </trkpt>
      <trkpt lat="45.71763038635254" lon="10.267260074615479">
        <ele>603.1315228267823</ele>
        <time>2018-02-26T14:40:31.498000Z</time>
      </trkpt>
      <trkpt lat="45.7175874710083" lon="10.26747465133667">
        <ele>603.9225300488495</ele>
        <time>2018-02-26T14:40:31.748000Z</time>
      </trkpt>
      <trkpt lat="45.71765184402466" lon="10.26771068572998">
        <ele>607.8205456811597</ele>
        <time>2018-02-26T14:40:32.032000Z</time>
      </trkpt>
      <trkpt lat="45.71818828582764" lon="10.26848316192627">
        <ele>611.6815954321813</ele>
        <time>2018-02-26T14:40:33.251000Z</time>
      </trkpt>
      <trkpt lat="45.71816682815552" lon="10.268676280975342">
        <ele>612.8279981687707</ele>
        <time>2018-02-26T14:40:33.470000Z</time>
      </trkpt>
      <trkpt lat="45.71808099746704" lon="10.268762111663818">
        <ele>613.3874306140548</ele>
        <time>2018-02-26T14:40:33.638000Z</time>
      </trkpt>
      <trkpt lat="45.71786642074585" lon="10.2687406539917">
        <ele>614.536959107531</ele>
        <time>2018-02-26T14:40:33.983000Z</time>
      </trkpt>
      <trkpt lat="45.71765184402466" lon="10.268847942352295">
        <ele>615.7515635072426</ele>
        <time>2018-02-26T14:40:34.347000Z</time>
      </trkpt>
      <trkpt lat="45.71754455566406" lon="10.269062519073486">
        <ele>616.736341317062</ele>
        <time>2018-02-26T14:40:34.642000Z</time>
      </trkpt>
      <trkpt lat="45.71754455566406" lon="10.269341468811035">
        <ele>621.7771826997706</ele>
        <time>2018-02-26T14:40:34.954000Z</time>
      </trkpt>
      <trkpt lat="45.71763038635254" lon="10.270092487335205">
        <ele>630.2834082619588</ele>
        <time>2018-02-26T14:40:35.806000Z</time>
      </trkpt>
      <trkpt lat="45.71754455566406" lon="10.2701997756958">
        <ele>628.693228034962</ele>
        <time>2018-02-26T14:40:35.989000Z</time>
      </trkpt>
      <trkpt lat="45.71692228317261" lon="10.269620418548584">
        <ele>607.0</ele>
        <time>2018-02-26T14:40:37.179000Z</time>
      </trkpt>
      <trkpt lat="45.71681499481201" lon="10.269684791564941">
        <ele>607.9936062011628</ele>
        <time>2018-02-26T14:40:37.365000Z</time>
      </trkpt>
      <trkpt lat="45.716214179992676" lon="10.270800590515137">
        <ele>619.0639798169789</ele>
        <time>2018-02-26T14:40:38.942000Z</time>
      </trkpt>
      <trkpt lat="45.71614980697632" lon="10.271015167236328">
        <ele>625.4568482547649</ele>
        <time>2018-02-26T14:40:39.203000Z</time>
      </trkpt>
      <trkpt lat="45.71614980697632" lon="10.271143913269043">
        <ele>625.5346676043595</ele>
        <time>2018-02-26T14:40:39.347000Z</time>
      </trkpt>
      <trkpt lat="45.716257095336914" lon="10.27122974395752">
        <ele>625.6410537407132</ele>
        <time>2018-02-26T14:40:39.544000Z</time>
      </trkpt>
      <trkpt lat="45.71634292602539" lon="10.271186828613281">
        <ele>625.7197547413375</ele>
        <time>2018-02-26T14:40:39.690000Z</time>
      </trkpt>
      <trkpt lat="45.716750621795654" lon="10.270328521728516">
        <ele>624.3472270335834</ele>
        <time>2018-02-26T14:40:40.852000Z</time>
      </trkpt>
      <trkpt lat="45.71685791015625" lon="10.270285606384277">
        <ele>624.5372310242354</ele>
        <time>2018-02-26T14:40:41.031000Z</time>
      </trkpt>
      <trkpt lat="45.71694374084473" lon="10.270371437072754">
        <ele>624.7157852893359</ele>
        <time>2018-02-26T14:40:41.199000Z</time>
      </trkpt>
      <trkpt lat="45.71694374084473" lon="10.270521640777588">
        <ele>625.5053421199954</ele>
        <time>2018-02-26T14:40:41.367000Z</time>
      </trkpt>
      <trkpt lat="45.71655750274658" lon="10.271315574645996">
        <ele>632.5918941560702</ele>
        <time>2018-02-26T14:40:42.450000Z</time>
      </trkpt>
      <trkpt lat="45.71642875671387" lon="10.271766185760498">
        <ele>639.151235831982</ele>
        <time>2018-02-26T14:40:42.995000Z</time>
      </trkpt>
      <trkpt lat="45.716471672058105" lon="10.27219533920288">
        <ele>641.4301526129376</ele>
        <time>2018-02-26T14:40:43.480000Z</time>
      </trkpt>
      <trkpt lat="45.71662187576294" lon="10.272839069366455">
        <ele>647.5361231875504</ele>
        <time>2018-02-26T14:40:44.240000Z</time>
      </trkpt>
      <trkpt lat="45.71709394454956" lon="10.27395486831665">
        <ele>667.1093182770038</ele>
        <time>2018-02-26T14:40:45.700000Z</time>
      </trkpt>
      <trkpt lat="45.717201232910156" lon="10.274405479431152">
        <ele>667.3655914796692</ele>
        <time>2018-02-26T14:40:46.233000Z</time>
      </trkpt>
      <trkpt lat="45.71717977523804" lon="10.274791717529297">
        <ele>668.3879883468484</ele>
        <time>2018-02-26T14:40:46.667000Z</time>
      </trkpt>
      <trkpt lat="45.716750621795654" lon="10.276014804840088">
        <ele>673.0</ele>
        <time>2018-02-26T14:40:48.199000Z</time>
      </trkpt>
      <trkpt lat="45.71677207946777" lon="10.276293754577637">
        <ele>675.5738253796059</ele>
        <time>2018-02-26T14:40:48.513000Z</time>
      </trkpt>
      <trkpt lat="45.71687936782837" lon="10.276379585266113">
        <ele>677.1880658907211</ele>
        <time>2018-02-26T14:40:48.710000Z</time>
      </trkpt>
      <trkpt lat="45.717008113861084" lon="10.276315212249756">
        <ele>678.9793121935667</ele>
        <time>2018-02-26T14:40:48.929000Z</time>
      </trkpt>
      <trkpt lat="45.71763038635254" lon="10.275650024414062">
        <ele>697.1788431373678</ele>
        <time>2018-02-26T14:40:50.174000Z</time>
      </trkpt>
      <trkpt lat="45.71784496307373" lon="10.27496337890625">
        <ele>705.8552104499007</ele>
        <time>2018-02-26T14:40:51.016000Z</time>
      </trkpt>
      <trkpt lat="45.71784496307373" lon="10.274748802185059">
        <ele>705.7353875528938</ele>
        <time>2018-02-26T14:40:51.256000Z</time>
      </trkpt>
      <trkpt lat="45.7175874710083" lon="10.273633003234863">
        <ele>705.7458100777476</ele>
        <time>2018-02-26T14:40:52.571000Z</time>
      </trkpt>
      <trkpt lat="45.71743726730347" lon="10.272667407989502">
        <ele>680.5254056964478</ele>
        <time>2018-02-26T14:40:53.678000Z</time>
      </trkpt>
      <trkpt lat="45.71754455566406" lon="10.272388458251953">
        <ele>682.0675851984136</ele>
        <time>2018-02-26T14:40:54.034000Z</time>
      </trkpt>
      <trkpt lat="45.71786642074585" lon="10.271916389465332">
        <ele>681.1190601120792</ele>
        <time>2018-02-26T14:40:54.773000Z</time>
      </trkpt>
      <trkpt lat="45.717973709106445" lon="10.271894931793213">
        <ele>681.7265291772501</ele>
        <time>2018-02-26T14:40:54.947000Z</time>
      </trkpt>
      <trkpt lat="45.718016624450684" lon="10.272088050842285">
        <ele>682.5199995370407</ele>
        <time>2018-02-26T14:40:55.174000Z</time>
      </trkpt>
      <trkpt lat="45.71778059005737" lon="10.272324085235596">
        <ele>684.1342761474575</ele>
        <time>2018-02-26T14:40:55.636000Z</time>
      </trkpt>
      <trkpt lat="45.7176947593689" lon="10.272624492645264">
        <ele>691.8939113861032</ele>
        <time>2018-02-26T14:40:55.999000Z</time>
      </trkpt>
      <trkpt lat="45.71767330169678" lon="10.272881984710693">
        <ele>693.566028339124</ele>
        <time>2018-02-26T14:40:56.289000Z</time>
      </trkpt>
      <trkpt lat="45.717716217041016" lon="10.27320384979248">
        <ele>695.6789476867613</ele>
        <time>2018-02-26T14:40:56.656000Z</time>
      </trkpt>
      <trkpt lat="45.71790933609009" lon="10.27369737625122">
        <ele>702.9936198385813</ele>
        <time>2018-02-26T14:40:57.289000Z</time>
      </trkpt>
      <trkpt lat="45.718252658843994" lon="10.274426937103271">
        <ele>708.0</ele>
        <time>2018-02-26T14:40:58.274000Z</time>
      </trkpt>
      <trkpt lat="45.71863889694214" lon="10.274813175201416">
        <ele>718.3299482846725</ele>
        <time>2018-02-26T14:40:59.029000Z</time>
      </trkpt>
      <trkpt lat="45.718703269958496" lon="10.275070667266846">
        <ele>719.0131404942609</ele>
        <time>2018-02-26T14:40:59.335000Z</time>
      </trkpt>
      <trkpt lat="45.71866035461426" lon="10.2756929397583">
        <ele>722.0992937290107</ele>
        <time>2018-02-26T14:41:00.035000Z</time>
      </trkpt>
      <trkpt lat="45.71906813420355" lon="10.276916027069092">
        <ele>716.0</ele>
        <time>2018-02-26T14:41:01.552000Z</time>
      </trkpt>
      <trkpt lat="45.71913242340088" lon="10.277066230773926">
        <ele>716.263997696482</ele>
        <time>2018-02-26T14:41:01.749000Z</time>
      </trkpt>
      <trkpt lat="45.719153881073" lon="10.277345180511475">
        <ele>716.6845150460076</ele>
        <time>2018-02-26T14:41:02.063000Z</time>
      </trkpt>
      <trkpt lat="45.71911096572876" lon="10.277581214904785">
        <ele>717.3833270979504</ele>
        <time>2018-02-26T14:41:02.336000Z</time>
      </trkpt>
      <trkpt lat="45.71889638900757" lon="10.278139114379883">
        <ele>718.3377630385577</ele>
        <time>2018-02-26T14:41:03.049000Z</time>
      </trkpt>
      <trkpt lat="45.71883201599121" lon="10.278418064117432">
        <ele>721.1113277890508</ele>
        <time>2018-02-26T14:41:03.378000Z</time>
      </trkpt>
      <trkpt lat="45.71842432022095" lon="10.279018878936768">
        <ele>722.3667755476062</ele>
        <time>2018-02-26T14:41:04.316000Z</time>
      </trkpt>
      <trkpt lat="45.71741589345038" lon="10.27946949005127">
        <ele>721.0</ele>
        <time>2018-02-26T14:41:06.010000Z</time>
      </trkpt>
      <trkpt lat="45.71709394454956" lon="10.279533863067627">
        <ele>718.6422031053274</ele>
        <time>2018-02-26T14:41:06.531000Z</time>
      </trkpt>
      <trkpt lat="45.716750621795654" lon="10.27946949005127">
        <ele>716.1307751611148</ele>
        <time>2018-02-26T14:41:07.086000Z</time>
      </trkpt>
      <trkpt lat="45.71589231491089" lon="10.278782844543457">
        <ele>703.0</ele>
        <time>2018-02-26T14:41:08.662000Z</time>
      </trkpt>
      <trkpt lat="45.71559190750122" lon="10.278804302215576">
        <ele>712.2085375881092</ele>
        <time>2018-02-26T14:41:09.144000Z</time>
      </trkpt>
      <trkpt lat="45.715484619140625" lon="10.279040336608887">
        <ele>715.3959404882539</ele>
        <time>2018-02-26T14:41:09.459000Z</time>
      </trkpt>
      <trkpt lat="45.715474812313914" lon="10.279094399884343">
        <ele>716.028092199918</ele>
        <time>2018-02-26T14:41:09.522000Z</time>
      </trkpt>
      <trkpt lat="45.715474896132946" lon="10.27909423224628">
        <ele>716.0304256605391</ele>
        <time>2018-02-26T14:41:09.522000Z</time>
      </trkpt>
      <trkpt lat="45.71535587310791" lon="10.279748439788818">
        <ele>730.6813960393079</ele>
        <time>2018-02-26T14:41:10.279000Z</time>
      </trkpt>
      <trkpt lat="45.714454650878906" lon="10.281164646148682">
        <ele>738.0</ele>
        <time>2018-02-26T14:41:12.424000Z</time>
      </trkpt>
      <trkpt lat="45.71428298950195" lon="10.281615257263184">
        <ele>739.3616249066566</ele>
        <time>2018-02-26T14:41:12.999000Z</time>
      </trkpt>
      <trkpt lat="45.71428298950195" lon="10.281915664672852">
        <ele>741.4918218703152</ele>
        <time>2018-02-26T14:41:13.335000Z</time>
      </trkpt>
      <trkpt lat="45.7145619392395" lon="10.282580852508545">
        <ele>744.8834132104288</ele>
        <time>2018-02-26T14:41:14.204000Z</time>
      </trkpt>
      <trkpt lat="45.71460485458374" lon="10.282731056213379">
        <ele>744.7900485335904</ele>
        <time>2018-02-26T14:41:14.386000Z</time>
      </trkpt>
      <trkpt lat="45.71470485068858" lon="10.283310916274786">
        <ele>744.446439777555</ele>
        <time>2018-02-26T14:41:15.055000Z</time>
      </trkpt>
      <trkpt lat="45.71470485068858" lon="10.283311000093818">
        <ele>744.4463915576631</ele>
        <time>2018-02-26T14:41:15.055000Z</time>
      </trkpt>
      <trkpt lat="45.714712142944336" lon="10.283353328704834">
        <ele>744.0879769219031</ele>
        <time>2018-02-26T14:41:15.104000Z</time>
      </trkpt>
      <trkpt lat="45.71469068527222" lon="10.283675193786621">
        <ele>743.5523628516885</ele>
        <time>2018-02-26T14:41:15.466000Z</time>
      </trkpt>
      <trkpt lat="45.713703632354736" lon="10.284919738769531">
        <ele>736.0990194763041</ele>
        <time>2018-02-26T14:41:17.574000Z</time>
      </trkpt>
      <trkpt lat="45.71333885192871" lon="10.28569221496582">
        <ele>744.0</ele>
        <time>2018-02-26T14:41:18.618000Z</time>
      </trkpt>
      <trkpt lat="45.7131028175354" lon="10.285820960998535">
        <ele>738.2253050692751</ele>
        <time>2018-02-26T14:41:19.023000Z</time>
      </trkpt>
      <trkpt lat="45.71213722229004" lon="10.28597116470337">
        <ele>733.0158800764544</ele>
        <time>2018-02-26T14:41:20.580000Z</time>
      </trkpt>
      <trkpt lat="45.71183681488037" lon="10.286164283752441">
        <ele>732.2129812635077</ele>
        <time>2018-02-26T14:41:21.108000Z</time>
      </trkpt>
      <trkpt lat="45.71185827255249" lon="10.28618574142456">
        <ele>732.1491680177074</ele>
        <time>2018-02-26T14:41:21.150000Z</time>
      </trkpt>
      <trkpt lat="45.71191510185599" lon="10.286218179389834">
        <ele>732.0</ele>
        <time>2018-02-26T14:41:21.248000Z</time>
      </trkpt>
    </trkseg>
  </trk>
</gpx>